createdAt,value
2022-08-27T00:00:52.954Z,22.27
2022-08-27T00:03:55.727Z,22.21
2022-08-27T00:06:57.381Z,22.30
2022-08-27T00:09:59.743Z,22.23
2022-08-27T00:13:01.743Z,22.20
2022-08-27T00:16:06.717Z,22.20
2022-08-27T00:19:08.457Z,22.14
2022-08-27T00:22:10.720Z,22.11
2022-08-27T00:25:13.392Z,22.09
2022-08-27T00:28:15.240Z,22.09
2022-08-27T00:31:17.528Z,22.02
2022-08-27T00:37:20.764Z,22.05
2022-08-27T00:40:23.231Z,22.06
2022-08-27T00:43:27.538Z,22.13
2022-08-27T00:46:34.884Z,22.14
2022-08-27T00:49:36.304Z,22.02
2022-08-27T00:52:57.463Z,22.00
2022-08-27T00:56:07.010Z,22.16
2022-08-27T00:59:08.516Z,22.15
2022-08-27T01:02:19.487Z,22.09
2022-08-27T01:05:25.352Z,22.00
2022-08-27T01:08:29.252Z,22.07
2022-08-27T01:11:31.777Z,21.97
2022-08-27T01:14:34.165Z,22.02
2022-08-27T01:17:38.952Z,22.00
2022-08-27T01:20:58.472Z,21.89
2022-08-27T01:24:25.762Z,21.87
2022-08-27T01:27:31.256Z,21.90
2022-08-27T01:30:32.898Z,21.87
2022-08-27T01:33:34.910Z,21.85
2022-08-27T01:36:36.964Z,21.85
2022-08-27T01:39:42.042Z,21.95
2022-08-27T01:42:47.423Z,21.94
2022-08-27T01:45:51.035Z,21.84
2022-08-27T01:48:53.199Z,21.82
2022-08-27T01:51:54.929Z,21.79
2022-08-27T01:54:56.775Z,21.84
2022-08-27T01:57:58.270Z,21.86
2022-08-27T02:01:08.088Z,21.70
2022-08-27T02:04:09.686Z,21.74
2022-08-27T02:07:11.801Z,21.77
2022-08-27T02:10:17.439Z,21.69
2022-08-27T02:13:19.181Z,21.77
2022-08-27T02:16:22.126Z,21.63
2022-08-27T02:19:23.978Z,21.73
2022-08-27T02:22:25.876Z,21.67
2022-08-27T02:25:29.886Z,21.63
2022-08-27T02:28:31.437Z,21.58
2022-08-27T02:31:33.235Z,21.52
2022-08-27T02:34:34.984Z,21.25
2022-08-27T02:37:37.918Z,21.27
2022-08-27T02:40:39.893Z,21.15
2022-08-27T02:43:41.447Z,21.17
2022-08-27T02:46:43.420Z,21.32
2022-08-27T02:49:44.926Z,21.31
2022-08-27T02:52:46.605Z,21.37
2022-08-27T02:55:49.092Z,21.32
2022-08-27T02:58:50.547Z,21.34
2022-08-27T03:01:52.140Z,21.16
2022-08-27T03:04:54.155Z,21.27
2022-08-27T03:07:55.631Z,21.27
2022-08-27T03:10:57.164Z,21.33
2022-08-27T03:14:01.456Z,21.36
2022-08-27T03:17:21.889Z,21.41
2022-08-27T03:20:23.820Z,21.46
2022-08-27T03:23:27.365Z,21.41
2022-08-27T03:26:30.497Z,21.32
2022-08-27T03:29:31.967Z,21.20
2022-08-27T03:32:37.233Z,21.21
2022-08-27T03:35:38.815Z,21.04
2022-08-27T03:38:40.282Z,21.13
2022-08-27T03:41:54.167Z,21.18
2022-08-27T03:44:56.525Z,21.29
2022-08-27T03:47:57.918Z,21.22
2022-08-27T03:51:05.049Z,21.38
2022-08-27T03:54:07.004Z,21.15
2022-08-27T03:57:08.640Z,21.21
2022-08-27T04:00:12.685Z,21.14
2022-08-27T04:03:14.406Z,21.23
2022-08-27T04:06:15.908Z,21.18
2022-08-27T04:09:17.908Z,21.20
2022-08-27T04:12:19.531Z,21.20
2022-08-27T04:15:21.430Z,21.04
2022-08-27T04:18:23.155Z,21.16
2022-08-27T04:21:24.553Z,21.21
2022-08-27T04:24:25.992Z,21.21
2022-08-27T04:27:28.142Z,21.05
2022-08-27T04:30:29.657Z,21.02
2022-08-27T04:33:32.342Z,21.04
2022-08-27T04:36:33.812Z,21.20
2022-08-27T04:39:35.456Z,21.12
2022-08-27T04:42:36.955Z,21.16
2022-08-27T04:45:46.210Z,21.02
2022-08-27T04:48:47.718Z,21.01
2022-08-27T04:51:51.107Z,21.06
2022-08-27T04:54:52.739Z,21.02
2022-08-27T04:57:54.140Z,21.11
2022-08-27T05:01:01.386Z,21.04
2022-08-27T05:04:03.288Z,21.10
2022-08-27T05:07:05.045Z,21.13
2022-08-27T05:10:06.978Z,21.20
2022-08-27T05:13:08.771Z,21.24
2022-08-27T05:16:13.418Z,21.10
2022-08-27T05:19:15.288Z,21.02
2022-08-27T05:22:16.803Z,21.13
2022-08-27T05:25:18.396Z,21.16
2022-08-27T05:28:21.542Z,21.13
2022-08-27T05:31:30.271Z,21.08
2022-08-27T05:34:31.822Z,21.04
2022-08-27T05:37:34.154Z,21.28
2022-08-27T05:40:36.258Z,21.01
2022-08-27T05:43:40.149Z,21.07
2022-08-27T05:46:41.627Z,20.97
2022-08-27T05:49:43.112Z,21.16
2022-08-27T05:52:44.514Z,21.01
2022-08-27T05:55:45.952Z,21.08
2022-08-27T05:59:07.719Z,21.20
2022-08-27T06:02:10.998Z,21.13
2022-08-27T06:05:12.531Z,21.17
2022-08-27T06:08:13.981Z,21.30
2022-08-27T06:11:15.654Z,21.13
2022-08-27T06:14:18.173Z,21.21
2022-08-27T06:17:19.691Z,21.25
2022-08-27T06:20:21.183Z,21.24
2022-08-27T06:23:28.262Z,21.21
2022-08-27T06:26:30.073Z,21.37
2022-08-27T06:29:31.556Z,21.50
2022-08-27T06:32:33.075Z,21.48
2022-08-27T06:35:35.131Z,21.57
2022-08-27T06:38:37.942Z,21.47
2022-08-27T06:41:41.088Z,21.50
2022-08-27T06:44:42.617Z,21.62
2022-08-27T06:47:44.049Z,21.71
2022-08-27T06:50:46.275Z,21.61
2022-08-27T06:53:48.334Z,21.75
2022-08-27T06:56:50.043Z,21.65
2022-08-27T06:59:51.754Z,21.62
2022-08-27T07:02:53.663Z,21.75
2022-08-27T07:06:05.105Z,21.85
2022-08-27T07:09:08.482Z,21.77
2022-08-27T07:12:09.961Z,21.78
2022-08-27T07:15:11.905Z,21.66
2022-08-27T07:18:13.418Z,21.56
2022-08-27T07:21:14.873Z,21.53
2022-08-27T07:24:16.424Z,21.58
2022-08-27T07:27:17.926Z,21.55
2022-08-27T07:30:19.467Z,21.62
2022-08-27T07:33:21.170Z,21.56
2022-08-27T07:36:23.724Z,21.66
2022-08-27T07:39:25.288Z,21.44
2022-08-27T07:42:45.135Z,21.23
2022-08-27T07:45:48.686Z,21.32
2022-08-27T07:48:51.262Z,21.44
2022-08-27T07:51:52.759Z,21.66
2022-08-27T07:54:54.380Z,21.76
2022-08-27T07:57:55.816Z,21.87
2022-08-27T08:00:57.513Z,21.95
2022-08-27T08:03:59.003Z,22.17
2022-08-27T08:07:00.444Z,22.06
2022-08-27T08:10:02.295Z,21.71
2022-08-27T08:13:04.719Z,21.88
2022-08-27T08:16:06.897Z,21.79
2022-08-27T08:19:09.317Z,21.97
2022-08-27T08:22:10.833Z,22.03
2022-08-27T08:25:14.033Z,22.01
2022-08-27T08:28:15.489Z,22.20
2022-08-27T08:31:17.103Z,22.06
2022-08-27T08:34:19.768Z,22.23
2022-08-27T08:37:21.429Z,22.40
2022-08-27T08:40:33.798Z,22.42
2022-08-27T08:43:42.388Z,22.59
2022-08-27T08:47:03.356Z,22.62
2022-08-27T08:50:11.247Z,22.81
2022-08-27T08:53:37.356Z,22.72
2022-08-27T08:57:04.081Z,22.66
2022-08-27T09:00:13.317Z,22.62
2022-08-27T09:03:16.402Z,22.54
2022-08-27T09:06:32.141Z,22.54
2022-08-27T09:10:22.057Z,22.56
2022-08-27T09:13:39.047Z,22.36
2022-08-27T09:16:40.692Z,22.62
2022-08-27T09:19:43.074Z,22.70
2022-08-27T09:23:01.466Z,22.64
2022-08-27T09:26:03.197Z,22.95
2022-08-27T09:29:20.073Z,22.95
2022-08-27T09:32:32.109Z,23.05
2022-08-27T09:35:42.334Z,23.36
2022-08-27T09:38:58.342Z,23.37
2022-08-27T09:42:02.285Z,23.62
2022-08-27T09:45:15.283Z,23.52
2022-08-27T09:48:21.344Z,23.58
2022-08-27T09:51:28.971Z,23.51
2022-08-27T09:54:46.551Z,23.37
2022-08-27T09:57:48.068Z,23.49
2022-08-27T10:01:16.944Z,23.33
2022-08-27T10:04:27.452Z,23.25
2022-08-27T10:07:31.801Z,23.48
2022-08-27T10:10:33.189Z,23.43
2022-08-27T10:13:51.892Z,23.41
2022-08-27T10:17:11.698Z,23.46
2022-08-27T10:20:31.014Z,23.57
2022-08-27T10:23:55.753Z,23.74
2022-08-27T10:27:03.285Z,23.99
2022-08-27T10:30:11.689Z,24.15
2022-08-27T10:33:27.253Z,23.92
2022-08-27T10:37:19.833Z,24.04
2022-08-27T10:40:59.292Z,24.31
2022-08-27T10:44:24.693Z,24.46
2022-08-27T10:47:49.562Z,24.59
2022-08-27T10:51:14.526Z,24.84
2022-08-27T10:54:35.257Z,24.57
2022-08-27T10:58:14.657Z,24.33
2022-08-27T11:01:38.963Z,24.52
2022-08-27T11:04:49.846Z,24.32
2022-08-27T11:07:56.269Z,24.54
2022-08-27T11:12:10.485Z,24.50
2022-08-27T11:14:55.180Z,24.50
2022-08-27T11:18:05.591Z,24.59
2022-08-27T11:21:16.639Z,24.57
2022-08-27T11:24:34.971Z,24.67
2022-08-27T11:27:38.529Z,24.63
2022-08-27T11:30:52.854Z,24.51
2022-08-27T11:34:10.516Z,24.40
2022-08-27T11:37:37.417Z,24.35
2022-08-27T11:40:56.301Z,24.49
2022-08-27T11:43:59.841Z,24.60
2022-08-27T11:47:15.158Z,24.91
2022-08-27T11:50:20.330Z,24.99
2022-08-27T11:53:28.987Z,25.01
2022-08-27T11:56:30.413Z,25.24
2022-08-27T11:59:34.079Z,25.06
2022-08-27T12:02:35.568Z,25.10
2022-08-27T12:05:45.029Z,24.81
2022-08-27T12:08:46.873Z,24.67
2022-08-27T12:12:00.818Z,25.08
2022-08-27T12:15:33.076Z,25.01
2022-08-27T12:18:53.934Z,25.04
2022-08-27T12:22:04.558Z,25.33
2022-08-27T12:25:07.761Z,25.42
2022-08-27T12:28:10.257Z,25.28
2022-08-27T12:31:21.498Z,25.39
2022-08-27T12:34:26.020Z,25.37
2022-08-27T12:37:30.879Z,25.52
2022-08-27T12:40:39.463Z,25.32
2022-08-27T12:43:43.924Z,25.37
2022-08-27T12:46:47.335Z,25.18
2022-08-27T12:49:59.129Z,25.02
2022-08-27T12:53:23.725Z,25.03
2022-08-27T12:56:36.979Z,25.12
2022-08-27T12:59:44.071Z,25.22
2022-08-27T13:03:23.080Z,25.13
2022-08-27T13:06:43.890Z,24.99
2022-08-27T13:09:45.377Z,25.10
2022-08-27T13:12:48.548Z,25.16
2022-08-27T13:15:53.039Z,25.01
2022-08-27T13:18:54.733Z,25.11
2022-08-27T13:21:56.751Z,25.10
2022-08-27T13:25:02.772Z,25.17
2022-08-27T13:28:12.659Z,25.23
2022-08-27T13:31:14.758Z,25.28
2022-08-27T13:34:21.982Z,25.25
2022-08-27T13:37:28.223Z,25.22
2022-08-27T13:40:36.793Z,25.32
2022-08-27T13:43:42.985Z,25.44
2022-08-27T13:46:48.760Z,25.48
2022-08-27T13:49:51.826Z,25.27
2022-08-27T13:53:20.444Z,25.19
2022-08-27T13:56:34.883Z,25.18
2022-08-27T13:59:43.096Z,25.52
2022-08-27T14:02:54.107Z,25.39
2022-08-27T14:05:59.310Z,25.46
2022-08-27T14:09:30.457Z,25.43
2022-08-27T14:12:35.385Z,25.34
2022-08-27T14:15:39.656Z,25.46
2022-08-27T14:18:59.823Z,25.65
2022-08-27T14:22:01.656Z,25.36
2022-08-27T14:25:04.082Z,25.39
2022-08-27T14:28:05.637Z,25.15
2022-08-27T14:31:07.204Z,25.26
2022-08-27T14:34:08.735Z,25.35
2022-08-27T14:37:10.520Z,25.45
2022-08-27T14:40:13.519Z,25.50
2022-08-27T14:43:15.821Z,25.36
2022-08-27T14:46:25.368Z,25.51
2022-08-27T14:49:34.825Z,25.56
2022-08-27T14:52:36.562Z,25.52
2022-08-27T14:55:38.089Z,25.78
2022-08-27T14:58:39.865Z,25.66
2022-08-27T15:01:41.639Z,25.50
2022-08-27T15:04:44.337Z,25.77
2022-08-27T15:07:49.434Z,25.85
2022-08-27T15:10:51.226Z,25.99
2022-08-27T15:13:54.091Z,26.17
2022-08-27T15:16:55.945Z,26.17
2022-08-27T15:19:57.616Z,26.47
2022-08-27T15:22:59.210Z,26.72
2022-08-27T15:26:00.687Z,27.37
2022-08-27T15:29:06.360Z,27.28
2022-08-27T15:32:12.807Z,26.75
2022-08-27T15:35:17.410Z,26.76
2022-08-27T15:38:18.878Z,26.87
2022-08-27T15:41:20.965Z,26.88
2022-08-27T15:44:22.384Z,26.68
2022-08-27T15:47:24.870Z,26.90
2022-08-27T15:50:28.665Z,26.87
2022-08-27T15:53:30.370Z,26.90
2022-08-27T15:56:34.557Z,26.45
2022-08-27T15:59:36.465Z,26.32
2022-08-27T16:02:40.233Z,26.15
2022-08-27T16:05:44.212Z,25.83
2022-08-27T16:08:45.680Z,25.68
2022-08-27T16:11:47.157Z,25.76
2022-08-27T16:14:48.998Z,25.89
2022-08-27T16:17:54.911Z,25.76
2022-08-27T16:20:58.460Z,25.79
2022-08-27T16:24:00.282Z,25.54
2022-08-27T16:27:01.737Z,25.42
2022-08-27T16:30:05.558Z,25.38
2022-08-27T16:33:08.044Z,25.24
2022-08-27T16:36:10.374Z,25.25
2022-08-27T16:39:11.805Z,25.21
2022-08-27T16:42:13.321Z,25.16
2022-08-27T16:45:17.724Z,25.20
2022-08-27T16:48:38.420Z,25.39
2022-08-27T16:51:40.065Z,25.46
2022-08-27T16:54:41.686Z,25.51
2022-08-27T16:57:43.357Z,25.37
2022-08-27T17:00:47.082Z,25.49
2022-08-27T17:04:17.321Z,25.53
2022-08-27T17:07:16.393Z,25.50
2022-08-27T17:10:18.586Z,25.55
2022-08-27T17:13:28.176Z,25.31
2022-08-27T17:16:31.889Z,24.75
2022-08-27T17:19:34.734Z,24.48
2022-08-27T17:22:36.401Z,24.41
2022-08-27T17:25:37.867Z,24.20
2022-08-27T17:28:40.823Z,24.11
2022-08-27T17:31:43.677Z,23.99
2022-08-27T17:34:45.165Z,24.08
2022-08-27T17:37:46.663Z,23.99
2022-08-27T17:40:52.202Z,23.97
2022-08-27T17:43:57.703Z,24.08
2022-08-27T17:47:02.879Z,23.96
2022-08-27T17:50:05.085Z,24.10
2022-08-27T17:53:07.939Z,24.01
2022-08-27T17:56:09.413Z,23.92
2022-08-27T17:59:10.866Z,24.00
2022-08-27T18:02:23.393Z,23.91
2022-08-27T18:05:25.853Z,23.79
2022-08-27T18:08:27.387Z,23.73
2022-08-27T18:11:28.859Z,23.65
2022-08-27T18:14:30.468Z,23.66
2022-08-27T18:17:33.230Z,23.63
2022-08-27T18:20:36.068Z,23.60
2022-08-27T18:23:38.272Z,23.57
2022-08-27T18:26:39.865Z,23.50
2022-08-27T18:29:42.210Z,23.42
2022-08-27T18:32:43.932Z,23.33
2022-08-27T18:35:45.651Z,23.32
2022-08-27T18:38:47.566Z,23.31
2022-08-27T18:41:49.269Z,23.26
2022-08-27T18:44:50.750Z,23.24
2022-08-27T18:47:54.059Z,23.19
2022-08-27T18:50:58.599Z,23.28
2022-08-27T18:54:00.152Z,23.30
2022-08-27T18:57:01.620Z,23.24
2022-08-27T19:00:06.014Z,23.19
2022-08-27T19:03:08.928Z,23.23
2022-08-27T19:06:11.559Z,23.21
2022-08-27T19:09:15.223Z,23.20
2022-08-27T19:12:17.599Z,23.16
2022-08-27T19:15:19.524Z,23.23
2022-08-27T19:18:24.517Z,23.20
2022-08-27T19:21:25.999Z,23.12
2022-08-27T19:24:27.587Z,23.17
2022-08-27T19:27:30.277Z,23.10
2022-08-27T19:30:31.806Z,23.16
2022-08-27T19:33:34.811Z,23.13
2022-08-27T19:36:40.632Z,23.08
2022-08-27T19:39:43.310Z,23.02
2022-08-27T19:42:44.816Z,23.03
2022-08-27T19:45:46.914Z,23.03
2022-08-27T19:48:48.594Z,23.00
2022-08-27T19:51:50.105Z,22.95
2022-08-27T19:55:12.713Z,22.82
2022-08-27T19:58:14.851Z,22.80
2022-08-27T20:01:16.637Z,22.91
2022-08-27T20:04:19.004Z,22.87
2022-08-27T20:07:21.805Z,22.80
2022-08-27T20:10:31.792Z,22.79
2022-08-27T20:13:38.539Z,22.77
2022-08-27T20:16:51.959Z,22.65
2022-08-27T20:19:53.435Z,22.66
2022-08-27T20:22:55.802Z,22.61
2022-08-27T20:26:01.223Z,22.53
2022-08-27T20:29:03.885Z,22.56
2022-08-27T20:32:05.351Z,22.55
2022-08-27T20:35:10.536Z,22.47
2022-08-27T20:38:12.163Z,22.53
2022-08-27T20:41:14.236Z,22.45
2022-08-27T20:44:16.985Z,22.48
2022-08-27T20:47:19.496Z,22.41
2022-08-27T20:50:22.059Z,22.37
2022-08-27T20:53:23.627Z,22.41
2022-08-27T20:56:25.086Z,22.34
2022-08-27T20:59:45.093Z,22.35
2022-08-27T21:02:46.705Z,22.30
2022-08-27T21:05:48.606Z,22.29
2022-08-27T21:08:50.850Z,22.33
2022-08-27T21:11:56.112Z,22.28
2022-08-27T21:14:58.844Z,22.21
2022-08-27T21:18:00.312Z,22.17
2022-08-27T21:21:04.467Z,22.21
2022-08-27T21:24:05.916Z,22.17
2022-08-27T21:27:07.385Z,22.12
2022-08-27T21:30:10.951Z,22.11
2022-08-27T21:33:12.457Z,22.03
2022-08-27T21:36:13.965Z,21.94
2022-08-27T21:39:15.429Z,21.99
2022-08-27T21:42:17.075Z,22.02
2022-08-27T21:45:19.938Z,21.98
2022-08-27T21:48:21.913Z,22.05
2022-08-27T21:51:24.710Z,22.06
2022-08-27T21:54:26.584Z,21.91
2022-08-27T21:57:29.645Z,21.95
2022-08-27T22:00:50.466Z,22.11
2022-08-27T22:03:52.355Z,21.97
2022-08-27T22:06:54.825Z,21.99
2022-08-27T22:09:56.450Z,22.04
2022-08-27T22:12:59.105Z,21.87
2022-08-27T22:16:02.745Z,21.88
2022-08-27T22:19:04.435Z,21.82
2022-08-27T22:22:05.839Z,21.83
2022-08-27T22:25:08.530Z,21.70
2022-08-27T22:28:10.554Z,21.73
2022-08-27T22:31:12.340Z,21.68
2022-08-27T22:34:15.062Z,21.65
2022-08-27T22:37:17.318Z,21.67
2022-08-27T22:40:21.942Z,21.64
2022-08-27T22:43:23.589Z,21.61
2022-08-27T22:46:25.144Z,21.55
2022-08-27T22:49:26.786Z,21.58
2022-08-27T22:52:28.447Z,21.44
2022-08-27T22:55:30.026Z,21.51
2022-08-27T22:58:31.548Z,21.61
2022-08-27T23:01:33.378Z,21.59
2022-08-27T23:04:54.067Z,21.55
2022-08-27T23:07:57.058Z,21.40
2022-08-27T23:10:58.597Z,21.43
2022-08-27T23:14:00.178Z,21.45
2022-08-27T23:17:01.659Z,21.40
2022-08-27T23:20:06.310Z,21.42
2022-08-27T23:23:09.994Z,21.24
2022-08-27T23:26:30.616Z,21.34
2022-08-27T23:29:32.098Z,21.46
2022-08-27T23:32:33.583Z,21.29
2022-08-27T23:35:35.281Z,21.18
2022-08-27T23:38:36.812Z,21.20
2022-08-27T23:41:38.285Z,21.17
2022-08-27T23:44:39.879Z,21.15
2022-08-27T23:47:41.417Z,21.17
2022-08-27T23:50:44.286Z,21.23
2022-08-27T23:53:45.866Z,21.28
2022-08-27T23:56:47.984Z,21.37
2022-08-27T23:59:49.454Z,21.38
